Terminal Aerodrome Forecast
Issued by NWS

Home | Current Version | Previous Version | Text Only | Print | Product List | Glossary On
Versions: 1 2 3 4 5 6 7 8 9 10 11 12 13 14 15 16 17 18
000
FTUS46 KSEW 021100
TAFHQM
TAF
KHQM 021132Z 0212/0312 00000KT 5SM BR SKC
      TEMPO 0212/0216 2SM BR BKN003
     FM021600 10007KT P6SM SCT080 BKN120
     FM030900 VRB04KT 3SM BR SCT004 SCT040=

USA.gov is the U.S. government's official web portal to all federal, state and local government web resources and services.